Time;durP1;ratioP1;P1;durP2;ratioP2;P2;SDS_P1;SDS_P2;PMS_P1;PMS_P2;Temp;Humidity;BMP_temperature;BMP_pressure;BME280_temperature;BME280_humidity;BME280_pressure;Samples;Min_cycle;Max_cycle;Signal;HPM_P1;HPM_P2
2022/03/20 00:01:10;;;;;;;4.57;2.47;;;;;;;8.78;48.21;103565.44;4976401;28;20042;-55
2022/03/20 00:03:35;;;;;;;7.22;2.75;;;;;;;8.88;48.35;103559.13;4971801;28;20327;-56
2022/03/20 00:06:00;;;;;;;6.03;2.60;;;;;;;8.77;48.52;103555.84;4978808;28;20364;-56
2022/03/20 00:08:26;;;;;;;6.60;2.90;;;;;;;8.73;49.17;103556.44;4957366;28;20426;-58
2022/03/20 00:10:55;;;;;;;7.00;2.83;;;;;;;8.69;49.12;103554.47;4979677;28;20056;-57
2022/03/20 00:13:22;;;;;;;8.10;3.15;;;;;;;8.37;50.18;103554.09;4958241;28;20546;-55
2022/03/20 00:15:50;;;;;;;7.43;3.30;;;;;;;8.45;50.06;103560.69;4973690;28;20044;-55
2022/03/20 00:18:21;;;;;;;5.45;2.75;;;;;;;8.41;50.02;103553.50;4978583;28;20161;-56
2022/03/20 00:20:49;;;;;;;5.97;3.20;;;;;;;8.32;50.64;103553.81;4971720;28;20050;-54
2022/03/20 00:23:16;;;;;;;6.00;3.10;;;;;;;8.34;50.93;103541.81;4969700;28;20184;-56
2022/03/20 00:25:50;;;;;;;6.45;3.30;;;;;;;8.27;51.23;103542.19;4975303;28;20042;-56
2022/03/20 00:28:19;;;;;;;7.83;3.50;;;;;;;8.33;50.59;103540.00;4976545;28;20060;-55
2022/03/20 00:30:45;;;;;;;10.00;3.90;;;;;;;7.97;52.19;103533.28;4967621;28;20312;-54
2022/03/20 00:33:10;;;;;;;7.70;3.60;;;;;;;8.22;51.71;103535.78;4972690;28;20066;-56
2022/03/20 00:35:36;;;;;;;7.63;3.80;;;;;;;8.19;51.87;103532.97;4978504;28;20125;-56
2022/03/20 00:38:02;;;;;;;7.78;3.92;;;;;;;8.11;52.38;103529.84;4965618;28;20318;-55
2022/03/20 00:40:28;;;;;;;8.38;4.13;;;;;;;8.22;52.14;103519.28;4970961;28;20137;-55
2022/03/20 00:42:54;;;;;;;9.85;4.65;;;;;;;8.19;52.47;103519.97;4969472;28;20045;-55
2022/03/20 00:45:19;;;;;;;8.88;4.35;;;;;;;8.21;52.26;103521.00;4980501;28;20049;-55
2022/03/20 00:47:45;;;;;;;9.68;4.88;;;;;;;8.21;52.76;103526.19;4959439;28;20310;-56
2022/03/20 00:50:10;;;;;;;11.48;4.95;;;;;;;8.21;52.78;103514.88;4972145;28;20073;-56
2022/03/20 00:52:36;;;;;;;10.15;5.40;;;;;;;8.11;53.05;103519.47;4967286;28;20061;-53
2022/03/20 00:55:04;;;;;;;7.72;4.65;;;;;;;8.16;52.91;103517.19;4979395;28;20060;-53
2022/03/20 00:57:30;;;;;;;11.10;6.00;;;;;;;7.99;53.84;103508.28;4976351;28;20045;-55
2022/03/20 00:59:55;;;;;;;9.32;5.43;;;;;;;8.07;53.86;103506.19;4972316;28;20045;-56
2022/03/20 01:02:20;;;;;;;11.45;6.07;;;;;;;8.14;53.45;103501.50;4966485;28;20041;-56
2022/03/20 01:04:46;;;;;;;11.13;6.05;;;;;;;8.13;53.93;103501.38;4970394;28;20042;-56
2022/03/20 01:07:12;;;;;;;14.02;6.47;;;;;;;8.12;54.10;103495.28;4975402;28;20042;-55
2022/03/20 01:09:37;;;;;;;13.07;6.60;;;;;;;8.03;54.02;103497.31;4983382;28;20156;-55
2022/03/20 01:12:04;;;;;;;11.50;6.53;;;;;;;8.01;54.32;103491.09;4979873;28;20050;-55
2022/03/20 01:14:30;;;;;;;11.75;6.53;;;;;;;8.05;54.28;103482.69;4961487;28;20115;-56
2022/03/20 01:16:55;;;;;;;11.80;6.65;;;;;;;7.95;55.12;103482.91;4976196;28;20026;-56
2022/03/20 01:19:25;;;;;;;14.73;7.30;;;;;;;8.03;54.82;103480.81;4973448;28;20053;-55
2022/03/20 01:21:52;;;;;;;12.05;6.80;;;;;;;7.96;54.70;103476.00;4978833;28;20037;-55
2022/03/20 01:24:19;;;;;;;15.73;7.30;;;;;;;7.93;54.93;103465.44;4971373;28;20049;-55
2022/03/20 01:26:45;;;;;;;13.02;7.63;;;;;;;8.04;54.72;103457.53;4973110;28;20037;-56
2022/03/20 01:29:10;;;;;;;14.55;7.72;;;;;;;7.96;54.79;103460.44;4979795;28;20049;-56
2022/03/20 01:31:36;;;;;;;14.65;7.65;;;;;;;7.74;55.31;103456.41;4964090;28;20686;-57
2022/03/20 01:34:03;;;;;;;15.80;8.10;;;;;;;7.90;55.08;103449.66;4977838;28;21053;-59
2022/03/20 01:36:28;;;;;;;12.30;7.63;;;;;;;7.85;55.47;103453.66;4967458;28;20042;-56
2022/03/20 01:38:54;;;;;;;23.17;8.55;;;;;;;7.91;55.08;103447.16;4978676;28;20068;-56
2022/03/20 01:41:20;;;;;;;15.85;8.32;;;;;;;7.82;55.16;103441.34;4971469;28;20331;-55
2022/03/20 01:43:54;;;;;;;14.75;8.35;;;;;;;7.87;55.14;103439.94;4971521;28;20062;-57
2022/03/20 01:46:20;;;;;;;18.73;8.85;;;;;;;7.82;55.22;103440.44;4947687;28;20097;-56
2022/03/20 01:48:46;;;;;;;18.20;9.32;;;;;;;7.91;54.84;103423.78;4969692;28;20395;-54
2022/03/20 01:51:12;;;;;;;17.02;9.25;;;;;;;7.82;54.97;103435.25;4964096;28;20480;-56
2022/03/20 01:53:41;;;;;;;16.95;8.85;;;;;;;7.86;54.81;103432.97;4977926;28;20084;-56
2022/03/20 01:56:07;;;;;;;16.15;9.38;;;;;;;7.80;54.93;103429.06;4972646;28;20065;-56
2022/03/20 01:58:33;;;;;;;17.20;9.15;;;;;;;7.77;55.14;103418.47;4953124;28;20612;-57
2022/03/20 02:01:00;;;;;;;19.17;9.77;;;;;;;7.74;55.09;103409.66;4968135;28;20049;-56
2022/03/20 02:03:25;;;;;;;20.25;9.80;;;;;;;7.59;55.27;103406.09;4949443;28;20045;-56
2022/03/20 02:05:52;;;;;;;19.60;10.10;;;;;;;7.55;55.59;103401.50;4984483;28;20060;-55
2022/03/20 02:08:25;;;;;;;20.00;10.13;;;;;;;7.71;55.01;103396.50;4980172;28;20065;-56
2022/03/20 02:10:51;;;;;;;17.05;10.30;;;;;;;7.68;55.09;103396.28;4977012;28;20135;-55
2022/03/20 02:13:20;;;;;;;21.20;10.90;;;;;;;7.62;55.25;103395.88;4979189;28;20049;-56
2022/03/20 02:15:46;;;;;;;22.33;11.10;;;;;;;7.56;55.28;103394.63;4981058;28;20536;-55
2022/03/20 02:18:14;;;;;;;20.75;11.18;;;;;;;7.67;55.10;103384.13;4976263;28;20265;-54
2022/03/20 02:20:40;;;;;;;21.13;11.65;;;;;;;7.56;54.95;103379.91;4953941;28;20112;-56
2022/03/20 02:23:06;;;;;;;20.60;11.30;;;;;;;7.54;54.95;103370.25;4973236;28;20584;-56
2022/03/20 02:25:33;;;;;;;21.35;11.23;;;;;;;7.47;55.36;103370.66;4973971;28;20046;-56
2022/03/20 02:27:58;;;;;;;20.20;11.52;;;;;;;7.42;55.26;103369.44;4978328;28;20631;-56
2022/03/20 02:30:27;;;;;;;23.85;11.68;;;;;;;7.29;56.02;103365.16;4969757;28;20157;-58
2022/03/20 02:32:53;;;;;;;21.52;11.40;;;;;;;7.46;55.47;103351.56;4976893;28;20449;-56
2022/03/20 02:35:19;;;;;;;19.33;11.88;;;;;;;7.49;55.57;103351.78;4979204;28;20782;-55
2022/03/20 02:37:49;;;;;;;22.15;12.30;;;;;;;7.43;55.63;103353.09;4966776;28;20046;-55
2022/03/20 02:40:16;;;;;;;22.80;11.75;;;;;;;7.42;55.83;103356.47;4981290;28;20389;-55
2022/03/20 02:42:45;;;;;;;22.10;12.15;;;;;;;7.38;55.87;103349.28;4967867;28;20053;-56
2022/03/20 02:45:10;;;;;;;19.63;11.68;;;;;;;7.41;55.65;103345.19;4974443;28;20137;-56
2022/03/20 02:47:38;;;;;;;21.00;12.05;;;;;;;7.35;56.14;103337.00;4980418;28;20099;-55
2022/03/20 02:50:12;;;;;;;21.48;12.13;;;;;;;7.34;56.24;103330.00;4979289;28;20053;-57
2022/03/20 02:53:03;;;;;;;21.77;12.03;;;;;;;7.26;56.58;103329.50;4972942;28;20462;-56
2022/03/20 02:55:35;;;;;;;22.33;12.07;;;;;;;7.14;57.03;103331.28;4978380;28;20053;-55
2022/03/20 02:58:01;;;;;;;21.45;11.85;;;;;;;7.31;56.43;103330.72;4974634;28;20050;-54
2022/03/20 03:00:29;;;;;;;23.20;12.10;;;;;;;7.32;56.52;103326.41;4971259;28;20103;-56
2022/03/20 03:02:56;;;;;;;21.05;11.80;;;;;;;7.16;57.01;103329.69;4979220;28;20415;-57
2022/03/20 03:05:25;;;;;;;23.77;12.38;;;;;;;7.19;57.18;103329.03;4980084;28;20346;-57
2022/03/20 03:10:56;;;;;;;21.20;11.88;;;;;;;7.13;57.37;103307.88;4973043;28;20228;-54
2022/03/20 03:13:35;;;;;;;23.08;12.68;;;;;;;7.04;57.91;103300.34;4974694;28;20061;-54
2022/03/20 03:16:03;;;;;;;22.17;11.32;;;;;;;7.10;57.73;103307.66;4954896;28;20040;-55
2022/03/20 03:18:28;;;;;;;24.77;12.60;;;;;;;7.04;58.13;103304.66;4970086;28;20305;-56
2022/03/20 03:20:54;;;;;;;22.52;12.00;;;;;;;7.05;58.17;103309.94;4977357;28;20487;-58
2022/03/20 03:23:20;;;;;;;21.02;11.85;;;;;;;7.03;58.28;103300.25;4971824;28;20405;-59
2022/03/20 03:25:46;;;;;;;22.65;12.07;;;;;;;7.03;58.46;103308.94;4982438;28;20050;-56
2022/03/20 03:28:12;;;;;;;23.23;11.52;;;;;;;6.97;58.63;103303.34;4979969;28;20054;-57
2022/03/20 03:30:45;;;;;;;21.73;11.70;;;;;;;6.95;58.89;103299.75;4970098;28;20486;-57
2022/03/20 03:33:17;;;;;;;21.10;11.65;;;;;;;6.77;59.46;103299.41;4979906;28;20056;-57
2022/03/20 03:35:43;;;;;;;20.63;11.20;;;;;;;6.77;59.56;103296.81;4975009;28;20441;-55
2022/03/20 03:38:13;;;;;;;21.55;11.38;;;;;;;6.90;59.36;103296.84;4952689;28;20124;-58
2022/03/20 03:40:40;;;;;;;22.50;11.38;;;;;;;6.91;59.48;103288.28;4972890;28;20080;-57
2022/03/20 03:43:06;;;;;;;24.15;11.13;;;;;;;6.89;59.47;103291.56;4980811;28;20045;-58
2022/03/20 03:45:32;;;;;;;21.48;10.77;;;;;;;6.93;59.41;103286.69;4975128;28;20398;-57
2022/03/20 03:47:58;;;;;;;20.77;10.90;;;;;;;6.82;59.82;103285.09;4977695;28;20045;-58
2022/03/20 03:50:23;;;;;;;20.08;10.68;;;;;;;6.74;60.10;103283.66;4973531;28;20543;-60
2022/03/20 03:52:49;;;;;;;22.42;10.70;;;;;;;6.89;59.69;103286.41;4972871;28;20331;-55
2022/03/20 03:55:16;;;;;;;22.30;10.90;;;;;;;6.81;59.92;103275.50;4978494;28;20363;-55
2022/03/20 03:57:46;;;;;;;21.27;10.88;;;;;;;6.50;60.82;103269.94;4978328;28;20536;-58
2022/03/20 04:00:12;;;;;;;18.75;10.18;;;;;;;6.69;60.24;103266.91;4982240;28;20045;-57
2022/03/20 04:02:38;;;;;;;19.52;10.32;;;;;;;6.77;60.26;103264.84;4962219;28;21116;-56
2022/03/20 04:05:04;;;;;;;20.70;10.02;;;;;;;6.79;59.65;103258.94;4972241;28;20103;-56
2022/03/20 04:07:29;;;;;;;23.30;10.85;;;;;;;6.71;60.12;103251.47;4976278;28;20050;-57
2022/03/20 04:09:54;;;;;;;20.45;10.68;;;;;;;6.79;59.73;103239.88;4976241;28;20104;-56
2022/03/20 04:12:20;;;;;;;24.50;10.52;;;;;;;6.72;59.90;103245.44;4968351;28;20054;-55
2022/03/20 04:14:45;;;;;;;22.75;10.93;;;;;;;6.68;60.00;103246.06;4974428;28;20064;-55
2022/03/20 04:17:11;;;;;;;21.33;10.73;;;;;;;6.61;60.37;103231.78;4974323;28;20124;-57
2022/03/20 04:19:37;;;;;;;19.50;10.70;;;;;;;6.70;59.91;103237.59;4974286;28;20378;-58
2022/03/20 04:22:03;;;;;;;20.05;10.73;;;;;;;6.61;59.88;103221.41;4973804;28;20129;-57
2022/03/20 04:24:33;;;;;;;24.02;11.20;;;;;;;6.61;59.96;103221.41;4967359;28;20053;-56
2022/03/20 04:26:58;;;;;;;23.65;11.43;;;;;;;6.58;59.75;103228.09;4974480;28;20087;-57
2022/03/20 04:29:25;;;;;;;19.98;11.32;;;;;;;6.59;59.85;103216.94;4977343;28;20042;-55
2022/03/20 04:31:54;;;;;;;24.52;11.55;;;;;;;6.55;59.69;103215.81;4972597;28;20370;-56
2022/03/20 04:34:21;;;;;;;22.48;11.05;;;;;;;6.53;59.70;103216.53;4973865;28;20157;-55
2022/03/20 04:36:46;;;;;;;22.58;11.65;;;;;;;6.57;59.45;103214.25;4973327;28;20054;-55
2022/03/20 04:39:11;;;;;;;23.48;11.55;;;;;;;6.57;59.67;103213.34;4975925;28;20484;-56
2022/03/20 04:41:37;;;;;;;22.83;12.18;;;;;;;6.50;59.50;103205.16;4976938;28;20050;-57
2022/03/20 04:44:02;;;;;;;24.40;12.52;;;;;;;6.47;59.49;103212.72;4959840;28;20049;-56
2022/03/20 04:46:28;;;;;;;26.05;12.43;;;;;;;6.35;59.56;103204.13;4969191;28;20575;-56
2022/03/20 04:59:50;;;;;;;22.73;12.10;;;;;;;6.41;59.13;103178.63;4985196;28;20363;-58
2022/03/20 05:02:16;;;;;;;26.17;12.48;;;;;;;6.37;59.13;103171.44;4974082;28;21199;-56
2022/03/20 05:04:41;;;;;;;25.00;12.48;;;;;;;6.31;59.62;103183.09;4968153;28;20391;-56
2022/03/20 05:07:07;;;;;;;29.10;13.02;;;;;;;6.34;58.98;103181.59;4967773;28;20540;-57
2022/03/20 05:15:10;;;;;;;24.65;12.65;;;;;;;6.12;59.33;103168.00;4976440;28;20045;-56
2022/03/20 05:17:36;;;;;;;27.50;13.45;;;;;;;6.20;59.13;103164.25;4973551;28;20045;-56
2022/03/20 05:20:03;;;;;;;23.67;12.80;;;;;;;6.28;58.80;103159.59;4975253;28;20042;-56
2022/03/20 05:22:28;;;;;;;28.73;13.40;;;;;;;6.23;58.96;103158.34;4964934;28;20144;-57
2022/03/20 05:24:54;;;;;;;29.30;13.65;;;;;;;6.24;58.88;103157.56;4974434;28;20053;-56
2022/03/20 05:27:19;;;;;;;28.50;14.13;;;;;;;6.16;58.61;103148.41;4978965;28;20055;-56
2022/03/20 05:29:45;;;;;;;27.63;13.68;;;;;;;6.19;58.33;103143.41;4976249;28;20410;-56
2022/03/20 05:32:10;;;;;;;27.38;13.70;;;;;;;6.19;58.72;103133.97;4979815;28;20586;-59
2022/03/20 05:34:37;;;;;;;25.27;13.45;;;;;;;6.18;58.52;103136.44;4964725;28;20065;-57
2022/03/20 05:37:02;;;;;;;26.08;13.52;;;;;;;6.19;58.45;103125.28;4974914;28;20033;-56
2022/03/20 05:39:28;;;;;;;28.83;14.57;;;;;;;6.25;58.14;103117.94;4971299;28;20048;-57
2022/03/20 05:41:54;;;;;;;24.27;13.82;;;;;;;6.17;58.42;103112.22;4969804;28;20107;-57
2022/03/20 05:44:21;;;;;;;27.65;13.80;;;;;;;6.05;58.82;103117.47;4971828;28;20669;-56
2022/03/20 05:46:49;;;;;;;28.20;13.80;;;;;;;5.98;58.82;103119.56;4973914;28;20487;-58
2022/03/20 05:49:16;;;;;;;29.10;14.15;;;;;;;5.92;59.03;103117.44;4969272;28;20046;-57
2022/03/20 05:51:42;;;;;;;26.27;14.43;;;;;;;5.94;59.48;103117.56;4968958;28;20580;-58
2022/03/20 05:54:08;;;;;;;25.98;14.27;;;;;;;5.96;58.96;103113.41;4974428;28;20042;-57
2022/03/20 05:59:17;;;;;;;31.17;14.30;;;;;;;5.87;59.36;103120.50;4967200;28;20151;-57
2022/03/20 06:01:43;;;;;;;29.65;14.85;;;;;;;5.86;59.30;103119.59;4974836;28;20149;-58
2022/03/20 06:04:09;;;;;;;29.40;13.80;;;;;;;5.94;59.18;103108.09;4969407;28;20041;-57
2022/03/20 06:06:35;;;;;;;29.75;15.20;;;;;;;6.04;58.22;103101.84;4970733;28;20417;-56
2022/03/20 06:09:02;;;;;;;31.42;14.90;;;;;;;6.12;58.26;103103.25;4979069;28;20549;-55
2022/03/20 06:11:27;;;;;;;32.30;14.85;;;;;;;6.13;58.17;103099.88;4981260;28;20037;-57
2022/03/20 06:13:53;;;;;;;29.45;14.95;;;;;;;6.21;57.56;103095.22;4977990;28;20084;-55
2022/03/20 06:16:21;;;;;;;31.80;14.63;;;;;;;6.09;58.31;103092.72;4973075;28;20046;-56
2022/03/20 06:18:47;;;;;;;28.33;14.90;;;;;;;6.28;57.61;103090.53;4973600;28;20042;-55
2022/03/20 06:21:13;;;;;;;33.50;14.88;;;;;;;6.31;57.51;103088.16;4977735;28;20053;-57
2022/03/20 06:23:39;;;;;;;30.73;14.70;;;;;;;6.28;57.23;103087.94;4967658;28;20115;-59
2022/03/20 06:26:05;;;;;;;32.17;15.40;;;;;;;6.31;57.24;103082.06;4977535;28;20545;-56
2022/03/20 06:28:30;;;;;;;30.08;15.38;;;;;;;6.46;56.48;103078.75;4965844;28;20038;-57
2022/03/20 06:30:56;;;;;;;29.63;15.20;;;;;;;6.37;56.24;103080.78;4976111;28;20413;-56
2022/03/20 06:33:21;;;;;;;31.77;15.45;;;;;;;6.52;55.74;103088.66;4968683;28;20165;-56
2022/03/20 06:35:47;;;;;;;31.70;15.00;;;;;;;6.84;55.07;103086.41;4960274;28;20417;-56
2022/03/20 06:38:12;;;;;;;29.13;15.68;;;;;;;6.74;54.77;103088.34;4946523;28;20049;-54
2022/03/20 06:40:38;;;;;;;30.40;16.17;;;;;;;6.73;54.44;103091.72;4968497;28;20558;-57
2022/03/20 06:43:05;;;;;;;29.20;15.05;;;;;;;6.51;54.67;103089.44;4972314;28;20042;-57
2022/03/20 06:45:30;;;;;;;30.10;15.60;;;;;;;6.79;54.24;103080.03;4970388;28;20569;-58
2022/03/20 06:47:56;;;;;;;30.65;15.52;;;;;;;6.89;53.54;103078.97;4973424;28;20042;-56
2022/03/20 06:50:21;;;;;;;33.33;16.77;;;;;;;6.76;54.49;103081.56;4969512;28;20042;-55
2022/03/20 06:52:46;;;;;;;31.13;15.95;;;;;;;6.84;53.61;103082.94;4976887;28;20547;-56
2022/03/20 06:55:13;;;;;;;31.25;15.68;;;;;;;6.98;53.89;103084.69;4982147;28;20056;-56
2022/03/20 06:57:43;;;;;;;29.77;15.90;;;;;;;6.76;53.26;103078.97;4970678;28;20738;-57
2022/03/20 07:00:10;;;;;;;30.63;15.88;;;;;;;7.04;53.40;103069.53;4967894;28;20026;-56
2022/03/20 07:02:36;;;;;;;32.75;16.15;;;;;;;7.00;52.69;103069.25;4973133;28;20042;-55
2022/03/20 07:05:02;;;;;;;31.50;15.75;;;;;;;6.65;53.78;103062.72;4976113;28;20492;-56
2022/03/20 07:07:28;;;;;;;31.05;16.00;;;;;;;7.07;52.48;103063.66;4976107;28;20030;-55
2022/03/20 07:09:53;;;;;;;31.60;15.65;;;;;;;7.09;52.51;103054.25;4980782;28;20049;-55
2022/03/20 07:12:19;;;;;;;32.45;15.70;;;;;;;7.15;52.04;103054.63;4967202;28;20046;-58
2022/03/20 07:14:45;;;;;;;32.17;15.90;;;;;;;7.65;50.96;103060.31;4973335;28;20155;-56
2022/03/20 07:17:24;;;;;;;31.50;15.27;;;;;;;7.70;50.23;103048.47;4970586;28;20513;-57
2022/03/20 07:19:50;;;;;;;28.00;15.20;;;;;;;7.60;49.80;103051.34;4978904;28;20129;-59
2022/03/20 07:22:16;;;;;;;30.15;15.00;;;;;;;7.93;49.87;103039.47;4963196;28;20042;-57
2022/03/20 07:24:43;;;;;;;32.67;15.70;;;;;;;8.11;49.73;103048.34;4972223;28;21873;-57
2022/03/20 07:29:54;;;;;;;31.15;15.65;;;;;;;8.87;47.22;103027.56;4979025;28;20053;-57
2022/03/20 07:32:19;;;;;;;36.70;16.02;;;;;;;9.09;46.25;103027.00;4961417;28;20046;-55
2022/03/20 07:34:45;;;;;;;30.25;15.63;;;;;;;9.04;46.61;103032.75;4967656;28;20472;-59
2022/03/20 07:37:16;;;;;;;31.20;16.23;;;;;;;9.48;45.95;103011.69;4977991;28;20379;-59
2022/03/20 07:39:43;;;;;;;29.70;16.02;;;;;;;9.34;46.36;103014.47;4977175;28;20358;-59
2022/03/20 07:42:08;;;;;;;26.55;15.77;;;;;;;9.02;45.32;103008.41;4979322;28;20061;-59
2022/03/20 07:44:36;;;;;;;31.55;16.30;;;;;;;8.98;45.79;103004.72;4973613;28;20054;-56
2022/03/20 07:47:08;;;;;;;31.80;16.80;;;;;;;9.26;44.90;103002.78;4980093;28;20454;-58
2022/03/20 07:49:37;;;;;;;29.35;16.27;;;;;;;8.92;45.80;102996.59;4969380;28;20048;-59
2022/03/20 07:52:06;;;;;;;31.02;16.58;;;;;;;8.89;45.96;102997.34;4971335;28;20248;-57
2022/03/20 07:54:32;;;;;;;30.75;16.33;;;;;;;9.15;45.45;102985.69;4971230;28;20049;-58
2022/03/20 07:56:57;;;;;;;30.83;16.90;;;;;;;9.28;46.01;102969.00;4960978;28;20571;-57
2022/03/20 07:59:24;;;;;;;31.27;16.20;;;;;;;9.06;45.94;102964.41;4974331;28;20512;-57
2022/03/20 08:01:49;;;;;;;33.42;16.63;;;;;;;9.14;45.81;102960.50;4979349;28;20456;-60
2022/03/20 08:04:16;;;;;;;31.73;16.77;;;;;;;9.13;45.96;102971.72;4976586;28;20573;-56
2022/03/20 08:06:42;;;;;;;31.95;17.05;;;;;;;8.83;45.71;102976.19;4954701;28;20151;-60
2022/03/20 08:09:07;;;;;;;33.67;17.05;;;;;;;8.58;45.56;102964.38;4979072;28;20045;-60
2022/03/20 08:11:33;;;;;;;31.75;17.30;;;;;;;8.92;45.53;102968.88;4979077;28;20135;-58
2022/03/20 08:13:59;;;;;;;31.77;16.75;;;;;;;8.82;45.02;102958.78;4979192;28;20076;-58
2022/03/20 08:16:28;;;;;;;30.90;17.08;;;;;;;9.07;45.05;102963.59;4967531;28;20121;-60
2022/03/20 08:18:55;;;;;;;30.90;17.00;;;;;;;8.66;45.39;102950.97;4966610;28;20092;-58
2022/03/20 08:21:21;;;;;;;33.45;17.73;;;;;;;8.78;45.82;102943.81;4979461;28;20054;-56
2022/03/20 08:23:46;;;;;;;33.25;17.20;;;;;;;9.04;46.15;102942.59;4979158;28;20096;-56
2022/03/20 08:26:13;;;;;;;31.77;17.63;;;;;;;8.94;45.57;102959.44;4974247;28;20739;-56
2022/03/20 08:28:41;;;;;;;33.20;17.75;;;;;;;8.70;45.35;102960.75;4953391;28;21300;-58
2022/03/20 08:31:07;;;;;;;35.83;18.02;;;;;;;8.58;45.91;102951.38;4962088;28;20482;-58
2022/03/20 08:33:33;;;;;;;34.55;17.70;;;;;;;8.46;45.56;102949.91;4971342;28;20037;-56
2022/03/20 08:36:00;;;;;;;35.15;18.23;;;;;;;8.45;46.39;102948.09;4975911;28;20045;-57
2022/03/20 08:38:25;;;;;;;36.58;18.98;;;;;;;8.43;46.02;102957.50;4970250;28;20077;-57
2022/03/20 08:40:50;;;;;;;37.22;18.35;;;;;;;8.45;46.00;102961.09;4972153;28;20367;-57
2022/03/20 08:43:16;;;;;;;35.35;17.88;;;;;;;8.18;46.23;102951.72;4980038;28;20053;-57
2022/03/20 08:45:42;;;;;;;34.30;17.83;;;;;;;8.14;45.79;102955.88;4978751;28;20134;-58
2022/03/20 08:48:09;;;;;;;34.95;17.88;;;;;;;8.48;46.59;102960.34;4977558;28;20046;-56
2022/03/20 08:50:34;;;;;;;35.58;18.20;;;;;;;8.92;46.04;102952.38;4966339;28;20693;-58
2022/03/20 08:53:00;;;;;;;35.05;18.60;;;;;;;8.89;45.98;102940.09;4979370;28;20057;-58
2022/03/20 08:55:25;;;;;;;35.90;18.88;;;;;;;8.75;45.16;102938.47;4967728;28;20516;-57
2022/03/20 08:57:52;;;;;;;34.72;18.08;;;;;;;8.79;44.97;102926.50;4972570;28;20128;-59
2022/03/20 09:00:20;;;;;;;34.17;18.42;;;;;;;9.00;44.89;102914.66;4972680;28;20050;-56
2022/03/20 09:02:48;;;;;;;34.13;18.33;;;;;;;8.74;44.25;102920.19;4975106;28;20496;-58
2022/03/20 09:05:14;;;;;;;34.08;19.08;;;;;;;8.94;45.35;102927.34;4974559;28;20374;-58
2022/03/20 09:07:40;;;;;;;33.60;18.40;;;;;;;9.05;44.72;102931.38;4961133;28;20033;-57
2022/03/20 09:10:07;;;;;;;34.10;18.30;;;;;;;8.96;44.31;102928.31;4969580;28;20598;-58
2022/03/20 09:12:34;;;;;;;33.47;17.58;;;;;;;8.77;44.71;102916.06;4969060;28;20457;-56
2022/03/20 09:15:04;;;;;;;34.13;17.85;;;;;;;8.99;43.61;102915.47;4968960;28;20383;-58
2022/03/20 09:20:15;;;;;;;40.33;19.73;;;;;;;9.16;44.04;102913.72;4976800;28;20734;-59
2022/03/20 09:22:40;;;;;;;34.50;18.55;;;;;;;9.17;42.95;102912.91;4959494;28;20324;-57
2022/03/20 09:25:07;;;;;;;39.42;19.27;;;;;;;9.22;43.29;102917.53;4957313;28;20038;-58
2022/03/20 09:27:33;;;;;;;36.95;19.27;;;;;;;9.00;43.45;102912.03;4974183;28;20386;-57
2022/03/20 09:29:58;;;;;;;38.17;19.70;;;;;;;8.90;43.86;102908.06;4966700;28;20038;-59
2022/03/20 09:32:24;;;;;;;34.70;19.13;;;;;;;8.88;43.97;102904.50;4972720;28;20533;-57
2022/03/20 09:34:50;;;;;;;41.17;19.35;;;;;;;8.88;44.44;102903.59;4972038;28;20042;-58
2022/03/20 09:37:15;;;;;;;34.35;18.92;;;;;;;8.80;44.03;102899.69;4968815;28;20439;-56
2022/03/20 09:39:40;;;;;;;39.55;20.08;;;;;;;8.67;44.40;102910.25;4979104;28;20046;-56
2022/03/20 09:42:06;;;;;;;37.25;19.15;;;;;;;8.64;43.74;102911.00;4979242;28;20037;-59
2022/03/20 09:44:33;;;;;;;36.90;19.55;;;;;;;8.60;43.93;102902.97;4966070;28;20192;-60
2022/03/20 09:47:00;;;;;;;35.13;18.98;;;;;;;8.63;43.92;102906.59;4964562;28;20045;-55
2022/03/20 09:49:25;;;;;;;39.67;19.65;;;;;;;8.83;43.96;102898.16;4953817;28;20054;-56
2022/03/20 09:51:56;;;;;;;36.05;19.70;;;;;;;9.02;43.59;102907.81;4969752;28;20052;-57
2022/03/20 09:54:22;;;;;;;40.47;20.13;;;;;;;9.08;43.67;102905.53;4958176;28;20081;-60
2022/03/20 09:56:51;;;;;;;37.67;19.10;;;;;;;9.29;42.77;102914.44;4975416;28;20044;-55
2022/03/20 09:59:17;;;;;;;36.25;19.67;;;;;;;9.29;43.13;102908.34;4974803;28;20058;-55
2022/03/20 10:01:42;;;;;;;35.42;19.30;;;;;;;9.27;43.03;102909.97;4975686;28;20551;-55
2022/03/20 10:04:12;;;;;;;35.03;18.83;;;;;;;9.30;42.38;102912.72;4973698;28;20776;-57
2022/03/20 10:06:39;;;;;;;36.55;19.30;;;;;;;9.49;42.67;102917.16;4970934;28;20041;-56
2022/03/20 10:09:16;;;;;;;38.38;20.60;;;;;;;9.82;42.07;102918.81;4973137;28;20476;-57
2022/03/20 10:11:51;;;;;;;39.00;19.83;;;;;;;9.90;42.64;102911.38;4977411;28;20366;-56
2022/03/20 10:14:19;;;;;;;38.63;19.33;;;;;;;10.00;41.26;102893.63;4969029;28;20045;-56
2022/03/20 10:17:06;;;;;;;38.75;19.70;;;;;;;9.96;40.81;102894.31;4969165;28;20450;-56
2022/03/20 10:19:32;;;;;;;35.30;20.10;;;;;;;10.02;41.10;102888.50;4974328;28;20046;-55
2022/03/20 10:22:03;;;;;;;34.53;19.05;;;;;;;9.97;40.33;102880.47;4978376;28;20042;-55
2022/03/20 10:24:33;;;;;;;35.08;19.65;;;;;;;10.07;41.40;102873.97;4973774;28;20057;-56
2022/03/20 10:26:58;;;;;;;38.65;20.85;;;;;;;10.18;41.47;102870.22;4975345;28;20046;-57
2022/03/20 10:29:24;;;;;;;40.75;20.50;;;;;;;10.44;41.78;102854.03;4973647;28;20080;-56
2022/03/20 10:31:51;;;;;;;39.42;20.42;;;;;;;10.69;39.93;102855.13;4975223;28;20060;-57
2022/03/20 10:34:18;;;;;;;38.45;20.70;;;;;;;10.50;39.14;102859.53;4979246;28;20065;-57
2022/03/20 10:36:43;;;;;;;40.72;20.98;;;;;;;10.70;39.37;102833.44;4960574;28;21531;-57
2022/03/20 10:39:15;;;;;;;38.90;21.48;;;;;;;10.87;39.78;102828.13;4974443;28;20042;-58
2022/03/20 10:41:41;;;;;;;37.00;21.73;;;;;;;11.18;37.84;102822.50;4975430;28;20045;-55
2022/03/20 10:44:15;;;;;;;38.65;22.33;;;;;;;11.12;38.15;102816.13;4983540;28;20363;-55
2022/03/20 10:46:42;;;;;;;38.40;21.88;;;;;;;10.97;38.76;102800.75;4970101;28;20130;-55
2022/03/20 10:49:09;;;;;;;39.97;21.92;;;;;;;11.40;37.81;102800.78;4970794;28;20026;-58
2022/03/20 10:51:41;;;;;;;41.33;22.58;;;;;;;11.17;38.06;102805.06;4969708;28;20046;-55
2022/03/20 10:54:08;;;;;;;40.00;22.90;;;;;;;11.03;37.25;102803.59;4975007;28;20460;-56
2022/03/20 10:56:36;;;;;;;40.13;22.25;;;;;;;11.04;37.92;102802.75;4967567;28;20041;-56
2022/03/20 10:59:15;;;;;;;41.70;23.58;;;;;;;11.03;39.72;102811.44;4974435;28;20037;-55
2022/03/20 11:01:41;;;;;;;41.95;23.80;;;;;;;11.05;38.64;102825.41;4972230;28;20050;-55
2022/03/20 11:04:08;;;;;;;41.97;23.35;;;;;;;10.48;39.30;102831.63;4970285;28;20079;-54
2022/03/20 11:06:35;;;;;;;43.80;23.70;;;;;;;10.57;38.30;102817.25;4966719;28;20042;-56
2022/03/20 11:09:04;;;;;;;41.60;23.70;;;;;;;10.94;38.89;102822.38;4978606;28;20147;-55
2022/03/20 11:11:32;;;;;;;42.35;23.60;;;;;;;11.12;38.75;102823.97;4978496;28;20509;-55
2022/03/20 11:13:59;;;;;;;43.60;24.02;;;;;;;11.26;38.68;102822.81;4973531;28;20046;-56
2022/03/20 11:16:27;;;;;;;44.92;24.98;;;;;;;11.21;39.01;102826.97;4969412;28;20470;-59
2022/03/20 11:18:53;;;;;;;46.72;25.27;;;;;;;11.20;39.22;102849.56;4974793;28;20038;-56
2022/03/20 11:21:24;;;;;;;44.33;26.50;;;;;;;10.45;40.75;102845.41;4977882;28;20049;-56
2022/03/20 11:23:54;;;;;;;44.92;26.20;;;;;;;10.61;41.02;102847.00;4972335;28;20049;-55
2022/03/20 11:26:26;;;;;;;46.15;25.60;;;;;;;10.54;40.90;102843.22;4974566;28;20049;-56
2022/03/20 11:28:57;;;;;;;49.42;25.77;;;;;;;10.66;40.81;102835.03;4973076;28;20554;-56
2022/03/20 11:31:23;;;;;;;44.47;25.50;;;;;;;10.69;41.49;102844.69;4975675;28;20049;-56
2022/03/20 11:33:50;;;;;;;44.53;24.67;;;;;;;10.78;40.51;102839.91;4978558;28;20123;-58
2022/03/20 11:36:18;;;;;;;44.05;25.48;;;;;;;10.90;40.09;102822.16;4977981;28;20049;-55
2022/03/20 11:39:12;;;;;;;43.95;24.60;;;;;;;11.07;39.81;102820.28;4972245;28;20738;-56
2022/03/20 11:41:39;;;;;;;45.07;25.83;;;;;;;11.35;39.55;102818.88;4971418;28;20062;-56
2022/03/20 11:44:10;;;;;;;42.63;24.00;;;;;;;11.08;38.97;102814.22;4973734;28;20056;-56
2022/03/20 11:46:36;;;;;;;44.85;25.05;;;;;;;11.23;37.85;102825.28;4964203;28;20272;-58